Time;durP1;ratioP1;P1;durP2;ratioP2;P2;SDS_P1;SDS_P2;PMS_P1;PMS_P2;Temp;Humidity;BMP_temperature;BMP_pressure;BME280_temperature;BME280_humidity;BME280_pressure;Samples;Min_cycle;Max_cycle;Signal;HPM_P1;HPM_P2
2021/09/10 00:01:16;;;;;;;2.83;2.50;;;25.30;99.90;;;;;;5091037;28;20070;-73
2021/09/10 00:03:41;;;;;;;3.15;2.78;;;25.30;99.90;;;;;;5091181;28;20479;-73
2021/09/10 00:06:08;;;;;;;3.47;2.38;;;25.30;99.90;;;;;;5090932;28;20376;-73
2021/09/10 00:08:33;;;;;;;3.25;2.33;;;25.40;99.90;;;;;;5091474;28;20028;-73
2021/09/10 00:10:59;;;;;;;2.70;2.47;;;25.30;99.90;;;;;;5091149;28;20028;-73
2021/09/10 00:13:24;;;;;;;3.03;2.15;;;25.30;99.90;;;;;;5090866;28;20142;-74
2021/09/10 00:15:50;;;;;;;3.35;2.42;;;25.30;99.90;;;;;;5091125;28;20039;-74
2021/09/10 00:18:15;;;;;;;2.65;2.28;;;25.30;99.90;;;;;;5090978;28;20474;-74
2021/09/10 00:20:41;;;;;;;2.40;2.20;;;25.30;99.90;;;;;;5094702;28;20032;-73
2021/09/10 00:23:07;;;;;;;4.53;2.22;;;25.30;99.90;;;;;;5094485;28;20056;-72
2021/09/10 00:25:32;;;;;;;2.78;2.25;;;25.30;99.90;;;;;;5095040;28;20016;-74
2021/09/10 00:27:58;;;;;;;3.03;2.13;;;25.30;99.90;;;;;;5094747;28;20103;-75
2021/09/10 00:30:24;;;;;;;2.72;2.30;;;25.30;99.90;;;;;;5076223;28;20418;-74
2021/09/10 00:32:49;;;;;;;3.13;2.45;;;25.30;99.90;;;;;;5094617;28;20032;-74
2021/09/10 00:35:15;;;;;;;2.83;2.40;;;25.30;99.90;;;;;;5076266;28;20032;-74
2021/09/10 00:37:40;;;;;;;2.63;2.38;;;25.30;99.90;;;;;;5094697;28;20055;-74
2021/09/10 00:40:08;;;;;;;3.60;2.00;;;25.30;99.90;;;;;;5094953;28;20031;-74
2021/09/10 00:42:33;;;;;;;2.53;1.98;;;25.30;99.90;;;;;;5094671;28;20021;-73
2021/09/10 00:44:59;;;;;;;3.15;2.05;;;25.30;99.90;;;;;;5094511;28;20031;-74
2021/09/10 00:47:25;;;;;;;2.22;2.03;;;25.30;99.90;;;;;;5094294;28;20028;-74
2021/09/10 00:49:51;;;;;;;2.50;2.10;;;25.30;99.90;;;;;;5094211;28;20031;-74
2021/09/10 00:52:17;;;;;;;2.85;1.90;;;25.20;99.90;;;;;;5094251;28;20024;-74
2021/09/10 00:54:43;;;;;;;2.20;1.95;;;25.30;99.90;;;;;;5094188;28;20039;-74
2021/09/10 00:57:09;;;;;;;4.13;1.77;;;25.30;99.90;;;;;;5093830;28;20020;-74
2021/09/10 00:59:35;;;;;;;2.17;1.85;;;25.30;99.90;;;;;;5094715;28;20035;-74
2021/09/10 01:02:01;;;;;;;5.88;2.20;;;25.30;99.90;;;;;;5094246;28;20142;-74
2021/09/10 01:04:28;;;;;;;2.53;2.05;;;25.20;99.90;;;;;;5093823;28;20028;-75
2021/09/10 01:06:55;;;;;;;2.20;1.88;;;25.20;99.90;;;;;;5075940;28;20081;-75
2021/09/10 01:09:22;;;;;;;2.60;1.95;;;25.20;99.90;;;;;;5094034;28;20442;-74
2021/09/10 01:11:50;;;;;;;3.83;2.13;;;25.20;99.90;;;;;;5094047;28;20031;-74
2021/09/10 01:14:17;;;;;;;2.50;2.08;;;25.20;99.90;;;;;;5093582;28;20115;-74
2021/09/10 01:16:46;;;;;;;2.30;1.73;;;25.20;99.90;;;;;;5093640;28;20027;-74
2021/09/10 01:19:29;;;;;;;2.67;1.73;;;25.20;99.90;;;;;;5093553;28;20016;-74
2021/09/10 01:21:57;;;;;;;3.13;2.10;;;25.20;99.90;;;;;;5093806;28;20028;-74
2021/09/10 01:24:58;;;;;;;2.33;2.00;;;25.20;99.90;;;;;;5093241;28;20051;-73
2021/09/10 01:27:24;;;;;;;2.30;1.80;;;25.20;99.90;;;;;;5082374;28;20055;-74
2021/09/10 01:29:49;;;;;;;2.85;2.03;;;25.10;99.90;;;;;;5093619;28;20476;-73
2021/09/10 01:32:15;;;;;;;5.43;1.85;;;25.20;99.90;;;;;;5092422;28;20059;-74
2021/09/10 01:34:40;;;;;;;2.22;1.80;;;25.20;99.90;;;;;;5075178;28;20127;-74
2021/09/10 01:37:06;;;;;;;2.35;1.58;;;25.10;99.90;;;;;;5093845;28;20024;-73
2021/09/10 01:39:32;;;;;;;2.10;1.70;;;25.10;99.90;;;;;;5093828;28;20099;-74
2021/09/10 01:41:57;;;;;;;2.03;1.77;;;25.10;99.90;;;;;;5093325;28;20379;-74
2021/09/10 01:44:23;;;;;;;1.77;1.48;;;25.10;99.90;;;;;;5093250;28;20024;-74
2021/09/10 01:46:49;;;;;;;1.90;1.70;;;25.10;99.90;;;;;;5093316;28;20024;-74
2021/09/10 01:49:14;;;;;;;3.30;1.80;;;25.10;99.90;;;;;;5092872;28;20027;-74
2021/09/10 01:51:40;;;;;;;2.28;1.88;;;25.10;99.90;;;;;;5093039;28;20028;-74
2021/09/10 01:54:05;;;;;;;1.95;1.45;;;25.10;99.90;;;;;;5093330;28;20049;-74
2021/09/10 01:56:31;;;;;;;2.22;1.83;;;25.10;99.90;;;;;;5093021;28;20020;-74
2021/09/10 01:58:57;;;;;;;2.03;1.77;;;25.10;99.90;;;;;;5093075;28;20069;-73
2021/09/10 02:01:24;;;;;;;1.70;1.60;;;25.10;99.90;;;;;;5092838;28;20020;-74
2021/09/10 02:03:50;;;;;;;1.70;1.42;;;25.10;99.90;;;;;;5092819;28;20028;-74
2021/09/10 02:06:16;;;;;;;1.80;1.50;;;25.10;99.90;;;;;;5092670;28;20027;-74
2021/09/10 02:08:42;;;;;;;2.13;1.80;;;25.10;99.90;;;;;;5092807;28;20106;-75
2021/09/10 02:11:08;;;;;;;1.45;1.35;;;25.10;99.90;;;;;;5092589;28;20112;-74
2021/09/10 02:13:33;;;;;;;2.45;1.60;;;25.10;99.90;;;;;;5093000;28;20024;-74
2021/09/10 02:15:59;;;;;;;2.58;1.50;;;25.10;99.90;;;;;;5092772;28;20134;-75
2021/09/10 02:18:24;;;;;;;1.60;1.48;;;25.10;99.90;;;;;;5092495;28;20039;-75
2021/09/10 02:20:50;;;;;;;4.00;1.90;;;25.00;99.90;;;;;;5092619;28;20111;-75
2021/09/10 02:23:16;;;;;;;1.98;1.48;;;25.10;99.90;;;;;;5074080;28;20097;-74
2021/09/10 02:25:41;;;;;;;1.98;1.48;;;25.10;99.90;;;;;;5092663;28;20055;-73
2021/09/10 02:28:07;;;;;;;2.58;2.08;;;25.00;99.90;;;;;;5092283;28;20086;-74
2021/09/10 02:30:34;;;;;;;3.08;1.75;;;25.10;99.90;;;;;;5092815;28;20407;-75
2021/09/10 02:33:00;;;;;;;2.22;1.60;;;25.10;99.90;;;;;;5092233;28;20078;-75
2021/09/10 02:35:26;;;;;;;3.70;1.52;;;25.00;99.90;;;;;;5092071;28;20067;-76
2021/09/10 02:37:51;;;;;;;1.83;1.38;;;25.00;99.90;;;;;;5092439;28;20062;-74
2021/09/10 02:40:17;;;;;;;2.08;1.58;;;25.00;99.90;;;;;;5073688;28;20352;-74
2021/09/10 02:42:42;;;;;;;3.70;1.55;;;25.00;99.90;;;;;;5092051;28;20032;-76
2021/09/10 02:45:09;;;;;;;2.67;1.67;;;25.00;99.90;;;;;;5091955;28;20024;-75
2021/09/10 02:47:34;;;;;;;4.63;1.63;;;25.00;99.90;;;;;;5092457;28;20024;-74
2021/09/10 02:50:00;;;;;;;2.00;1.42;;;25.00;99.90;;;;;;5091912;28;20024;-74
2021/09/10 02:52:26;;;;;;;1.85;1.63;;;25.00;99.90;;;;;;5091661;28;20906;-74
2021/09/10 02:54:51;;;;;;;2.05;1.27;;;25.00;99.90;;;;;;5092012;28;20098;-74
2021/09/10 02:57:17;;;;;;;1.80;1.33;;;25.00;99.90;;;;;;5091718;28;20027;-74
2021/09/10 02:59:42;;;;;;;2.05;1.40;;;25.00;99.90;;;;;;5092052;28;20031;-76
2021/09/10 03:02:08;;;;;;;3.00;1.55;;;25.00;99.90;;;;;;5091449;28;20031;-75
2021/09/10 03:04:34;;;;;;;1.58;1.45;;;25.00;99.90;;;;;;5091921;28;20380;-75
2021/09/10 03:06:59;;;;;;;2.05;1.50;;;25.00;99.90;;;;;;5091960;28;20031;-75
2021/09/10 03:09:27;;;;;;;2.53;1.23;;;24.90;99.90;;;;;;5091869;28;20039;-75
2021/09/10 03:11:52;;;;;;;1.67;1.38;;;25.00;99.90;;;;;;5091757;28;20020;-75
2021/09/10 03:14:18;;;;;;;2.60;1.55;;;24.90;99.90;;;;;;5091550;28;20468;-75
2021/09/10 03:16:43;;;;;;;1.23;1.05;;;24.90;99.90;;;;;;5091545;28;20035;-75
2021/09/10 03:19:09;;;;;;;2.58;1.50;;;24.90;99.90;;;;;;5091370;28;20039;-75
2021/09/10 03:21:36;;;;;;;1.92;1.38;;;24.90;99.90;;;;;;5091903;28;20024;-76
2021/09/10 03:24:01;;;;;;;2.42;1.38;;;24.90;99.90;;;;;;5073710;28;20051;-76
2021/09/10 03:26:27;;;;;;;2.13;1.20;;;24.90;99.90;;;;;;5091345;28;20060;-76
2021/09/10 03:28:53;;;;;;;1.92;1.30;;;24.90;99.90;;;;;;5091457;28;20471;-75
2021/09/10 03:31:19;;;;;;;1.88;1.60;;;24.90;99.90;;;;;;5091341;28;20031;-75
2021/09/10 03:33:44;;;;;;;1.90;1.33;;;24.90;99.90;;;;;;5091360;28;20102;-74
2021/09/10 03:36:10;;;;;;;1.50;1.30;;;24.90;99.90;;;;;;5091181;28;20085;-75
2021/09/10 03:38:36;;;;;;;2.78;1.70;;;24.90;99.90;;;;;;5073577;28;20103;-75
2021/09/10 03:41:02;;;;;;;4.00;1.33;;;24.90;99.90;;;;;;5091917;28;20024;-75
2021/09/10 03:43:27;;;;;;;3.22;1.40;;;24.90;99.90;;;;;;5091212;28;20387;-75
2021/09/10 03:45:53;;;;;;;2.03;1.48;;;24.90;99.90;;;;;;5091404;28;20028;-75
2021/09/10 03:48:19;;;;;;;3.10;1.45;;;24.90;99.90;;;;;;5091133;28;20482;-74
2021/09/10 03:50:44;;;;;;;4.47;1.40;;;24.90;99.90;;;;;;5091288;28;20035;-74
2021/09/10 03:53:10;;;;;;;1.67;1.15;;;24.90;99.90;;;;;;5091001;28;20050;-74
2021/09/10 03:55:36;;;;;;;1.65;1.20;;;24.80;99.90;;;;;;5095080;28;20028;-74
2021/09/10 03:58:01;;;;;;;2.00;1.20;;;24.80;99.90;;;;;;5095530;28;20361;-75
2021/09/10 04:00:27;;;;;;;1.83;1.30;;;24.80;99.90;;;;;;5095136;28;20111;-75
2021/09/10 04:02:52;;;;;;;3.58;1.20;;;24.80;99.90;;;;;;5095239;28;20020;-75
2021/09/10 04:05:18;;;;;;;1.55;1.10;;;24.80;99.90;;;;;;5095082;28;20020;-74
2021/09/10 04:07:44;;;;;;;1.50;1.30;;;24.80;99.90;;;;;;5095198;28;20432;-75
2021/09/10 04:10:09;;;;;;;2.05;1.05;;;24.80;99.90;;;;;;5094941;28;20030;-75
2021/09/10 04:12:35;;;;;;;1.67;1.40;;;24.80;99.90;;;;;;5095458;28;20028;-75
2021/09/10 04:15:01;;;;;;;1.65;1.20;;;24.80;99.90;;;;;;5095274;28;20382;-74
2021/09/10 04:17:26;;;;;;;1.40;0.95;;;24.80;99.90;;;;;;5094747;28;20028;-75
2021/09/10 04:19:52;;;;;;;3.50;0.93;;;24.80;99.90;;;;;;5095115;28;20436;-75
2021/09/10 04:22:19;;;;;;;1.40;1.10;;;24.80;99.90;;;;;;5094660;28;20103;-75
2021/09/10 04:24:45;;;;;;;1.58;1.05;;;24.80;99.90;;;;;;5094890;28;20032;-74
2021/09/10 04:27:10;;;;;;;2.08;1.27;;;24.80;99.90;;;;;;5094642;28;20020;-74
2021/09/10 04:29:36;;;;;;;2.03;1.30;;;24.80;99.90;;;;;;5095288;28;20440;-75
2021/09/10 04:32:02;;;;;;;2.20;1.30;;;24.70;99.90;;;;;;5094829;28;20107;-75
2021/09/10 04:34:27;;;;;;;2.40;1.20;;;24.70;99.90;;;;;;5094414;28;20040;-74
2021/09/10 04:36:53;;;;;;;3.22;1.08;;;24.70;99.90;;;;;;5094721;28;20028;-74
2021/09/10 04:39:18;;;;;;;2.45;1.20;;;24.70;99.90;;;;;;5094302;28;20041;-73
2021/09/10 04:41:44;;;;;;;2.90;1.25;;;24.70;99.90;;;;;;5094613;28;20035;-75
2021/09/10 04:44:09;;;;;;;2.95;1.30;;;24.70;99.90;;;;;;5094163;28;20020;-74
2021/09/10 04:46:35;;;;;;;3.40;1.20;;;24.70;99.90;;;;;;5094630;28;20028;-74
2021/09/10 04:49:01;;;;;;;4.72;0.95;;;24.70;99.90;;;;;;5094333;28;20020;-74
2021/09/10 04:51:29;;;;;;;2.38;1.33;;;24.70;99.90;;;;;;5093969;28;20480;-74
2021/09/10 04:53:56;;;;;;;3.65;1.45;;;24.70;99.90;;;;;;5094152;28;20476;-74
2021/09/10 04:56:22;;;;;;;1.52;0.90;;;24.70;99.90;;;;;;5094023;28;20070;-74
2021/09/10 04:58:47;;;;;;;1.80;1.10;;;24.70;99.90;;;;;;5094124;28;20507;-74
2021/09/10 05:01:13;;;;;;;3.15;1.30;;;24.70;99.90;;;;;;5094007;28;20027;-74
2021/09/10 05:03:39;;;;;;;2.70;1.00;;;24.70;99.90;;;;;;5094068;28;20047;-74
2021/09/10 05:06:04;;;;;;;1.75;1.25;;;24.60;99.90;;;;;;5092980;28;20044;-74
2021/09/10 05:08:30;;;;;;;3.47;1.20;;;24.70;99.90;;;;;;5093758;28;20024;-73
2021/09/10 05:10:56;;;;;;;2.63;1.00;;;24.70;99.90;;;;;;5094137;28;20810;-74
2021/09/10 05:13:21;;;;;;;1.10;0.90;;;24.70;99.90;;;;;;5093692;28;20024;-75
2021/09/10 05:15:47;;;;;;;2.15;1.13;;;24.70;99.90;;;;;;5093984;28;20118;-75
2021/09/10 05:18:12;;;;;;;2.90;1.30;;;24.70;99.90;;;;;;5095403;28;20382;-74
2021/09/10 05:20:40;;;;;;;3.33;1.17;;;24.70;99.90;;;;;;5081969;28;20032;-74
2021/09/10 05:23:05;;;;;;;3.78;1.20;;;24.70;99.90;;;;;;5097531;28;20020;-74
2021/09/10 05:25:31;;;;;;;2.05;1.15;;;24.70;99.90;;;;;;5093665;28;20150;-74
2021/09/10 05:27:57;;;;;;;2.28;1.30;;;24.70;99.90;;;;;;5093755;28;20093;-73
2021/09/10 05:30:22;;;;;;;1.10;1.00;;;24.60;99.90;;;;;;5093390;28;20028;-74
2021/09/10 05:32:48;;;;;;;1.88;1.38;;;24.70;99.90;;;;;;5093616;28;20028;-73
2021/09/10 05:35:15;;;;;;;4.50;1.20;;;24.60;99.90;;;;;;5093332;28;20384;-73
2021/09/10 05:37:41;;;;;;;9.35;1.90;;;24.60;99.90;;;;;;5093554;28;20077;-70
2021/09/10 05:40:08;;;;;;;3.15;1.88;;;24.60;99.90;;;;;;5093596;28;20028;-71
2021/09/10 05:42:33;;;;;;;5.68;1.70;;;24.60;99.90;;;;;;5093721;28;20024;-74
2021/09/10 05:44:59;;;;;;;5.85;2.40;;;24.60;99.90;;;;;;5093436;28;20081;-73
2021/09/10 05:47:25;;;;;;;6.60;3.72;;;24.60;99.90;;;;;;5092823;28;20507;-70
2021/09/10 05:49:51;;;;;;;5.10;3.97;;;24.60;99.90;;;;;;5092907;28;20020;-69
2021/09/10 05:52:16;;;;;;;5.95;4.43;;;24.50;99.90;;;;;;5093049;28;20023;-69
2021/09/10 05:54:42;;;;;;;6.15;4.50;;;24.50;99.90;;;;;;5093159;28;20063;-68
2021/09/10 05:57:08;;;;;;;6.60;4.30;;;24.50;99.90;;;;;;5093023;28;20031;-73
2021/09/10 05:59:33;;;;;;;8.57;4.13;;;24.40;99.90;;;;;;5093373;28;20450;-68
2021/09/10 06:01:59;;;;;;;9.88;4.70;;;24.40;99.90;;;;;;5074969;28;20038;-69
2021/09/10 06:04:25;;;;;;;6.65;4.32;;;24.30;99.90;;;;;;5092801;28;20495;-69
2021/09/10 06:06:50;;;;;;;6.10;4.35;;;24.30;99.90;;;;;;5092990;28;20103;-69
2021/09/10 06:09:16;;;;;;;8.13;4.32;;;24.20;99.90;;;;;;5074551;28;20027;-69
2021/09/10 06:11:42;;;;;;;7.50;4.80;;;24.20;99.90;;;;;;5092695;28;20039;-70
2021/09/10 06:14:08;;;;;;;9.15;4.07;;;24.20;99.90;;;;;;5092494;28;20028;-69
2021/09/10 06:16:34;;;;;;;6.95;4.18;;;24.10;99.90;;;;;;5092754;28;20077;-69
2021/09/10 06:19:00;;;;;;;5.65;4.03;;;24.10;99.90;;;;;;5092856;28;20031;-70
2021/09/10 06:21:26;;;;;;;6.55;3.95;;;24.00;99.90;;;;;;5092239;28;20028;-68
2021/09/10 06:23:52;;;;;;;6.40;4.25;;;24.00;99.90;;;;;;5092679;28;20051;-68
2021/09/10 06:26:19;;;;;;;8.38;4.32;;;24.00;99.90;;;;;;5092202;28;20020;-68
2021/09/10 06:28:44;;;;;;;7.13;4.35;;;23.90;99.90;;;;;;5092486;28;20463;-68
2021/09/10 06:31:10;;;;;;;8.30;4.22;;;23.90;99.90;;;;;;5092308;28;20096;-68
2021/09/10 06:33:36;;;;;;;6.18;4.15;;;23.80;99.90;;;;;;5092670;28;20020;-68
2021/09/10 06:36:02;;;;;;;5.00;3.60;;;23.80;99.90;;;;;;5092457;28;20365;-68
2021/09/10 06:38:27;;;;;;;5.97;4.25;;;23.70;99.90;;;;;;5092105;28;20036;-68
2021/09/10 06:40:53;;;;;;;7.28;4.10;;;23.70;99.90;;;;;;5092298;28;20024;-69
2021/09/10 06:43:18;;;;;;;6.30;3.80;;;23.60;99.90;;;;;;5092054;28;20024;-69
2021/09/10 06:45:46;;;;;;;9.13;3.85;;;23.70;99.90;;;;;;5092246;28;20031;-75
2021/09/10 06:48:11;;;;;;;8.65;3.55;;;23.60;99.90;;;;;;5073863;28;20032;-74
2021/09/10 06:50:37;;;;;;;6.70;2.92;;;23.60;99.90;;;;;;5091979;28;20019;-74
2021/09/10 06:53:03;;;;;;;6.50;2.78;;;23.60;99.90;;;;;;5092416;28;20030;-74
2021/09/10 06:55:30;;;;;;;5.18;2.30;;;23.60;99.90;;;;;;5091607;28;20439;-74
2021/09/10 06:57:55;;;;;;;4.95;2.50;;;23.60;99.90;;;;;;5091879;28;20024;-74
2021/09/10 07:00:21;;;;;;;3.50;2.08;;;23.60;99.90;;;;;;5091744;28;20031;-74
2021/09/10 07:02:47;;;;;;;3.70;1.92;;;23.60;99.90;;;;;;5091954;28;20452;-74
2021/09/10 07:05:13;;;;;;;6.30;1.95;;;23.50;99.90;;;;;;5091765;28;20475;-74
2021/09/10 07:07:38;;;;;;;3.33;1.90;;;23.60;99.90;;;;;;5091875;28;20451;-74
2021/09/10 07:10:05;;;;;;;3.08;2.05;;;23.50;99.90;;;;;;5090711;28;20035;-74
2021/09/10 07:12:30;;;;;;;5.90;1.98;;;23.50;99.90;;;;;;5091501;28;20020;-74
2021/09/10 07:14:56;;;;;;;2.70;1.83;;;23.50;99.90;;;;;;5091779;28;20043;-74
2021/09/10 07:17:22;;;;;;;3.30;1.77;;;23.50;99.90;;;;;;5091285;28;20464;-74
2021/09/10 07:19:48;;;;;;;4.05;1.90;;;23.50;99.90;;;;;;5090787;28;20049;-74
2021/09/10 07:22:14;;;;;;;2.90;1.73;;;23.50;99.90;;;;;;5091388;28;20016;-74
2021/09/10 07:24:40;;;;;;;4.05;1.60;;;23.50;99.90;;;;;;5091557;28;20024;-74
2021/09/10 07:27:06;;;;;;;3.75;1.80;;;23.50;99.90;;;;;;5073237;28;20028;-74
2021/09/10 07:29:32;;;;;;;3.60;1.75;;;23.50;99.90;;;;;;5091114;28;20020;-74
2021/09/10 07:31:58;;;;;;;5.15;2.00;;;23.50;99.90;;;;;;5073523;28;20024;-74
2021/09/10 07:34:23;;;;;;;2.47;1.60;;;23.50;99.90;;;;;;5091162;28;20074;-74
2021/09/10 07:36:49;;;;;;;3.40;1.65;;;23.50;99.90;;;;;;5091533;28;20052;-74
2021/09/10 07:39:19;;;;;;;3.60;1.70;;;23.50;99.90;;;;;;5091166;28;20028;-74
2021/09/10 07:41:46;;;;;;;2.92;1.40;;;23.50;99.90;;;;;;5091809;28;20020;-74
2021/09/10 07:44:14;;;;;;;2.92;1.70;;;23.50;99.90;;;;;;5091148;28;20406;-74
2021/09/10 07:46:40;;;;;;;2.45;1.60;;;23.50;99.90;;;;;;5091519;28;20023;-74
2021/09/10 07:49:07;;;;;;;2.53;1.60;;;23.50;99.90;;;;;;5091884;28;20025;-74
2021/09/10 07:51:33;;;;;;;2.85;1.55;;;23.60;99.90;;;;;;5091629;28;20112;-74
2021/09/10 07:53:59;;;;;;;3.10;1.75;;;23.50;99.90;;;;;;5091291;28;20107;-74
2021/09/10 07:56:24;;;;;;;2.22;1.25;;;23.50;99.90;;;;;;5091183;28;20111;-75
2021/09/10 07:58:50;;;;;;;2.33;1.70;;;23.60;99.90;;;;;;5091400;28;20028;-74
2021/09/10 08:01:16;;;;;;;3.05;1.58;;;23.50;99.90;;;;;;5091059;28;20028;-74
2021/09/10 08:03:41;;;;;;;2.33;1.50;;;23.60;99.90;;;;;;5091283;28;20114;-74
2021/09/10 08:06:07;;;;;;;2.75;1.70;;;23.50;99.90;;;;;;5091069;28;20039;-73
2021/09/10 08:08:33;;;;;;;2.17;1.30;;;23.50;99.90;;;;;;5091426;28;20066;-74
2021/09/10 08:10:58;;;;;;;1.85;1.23;;;23.60;99.90;;;;;;5091279;28;20024;-74
2021/09/10 08:13:24;;;;;;;2.30;1.48;;;23.60;99.90;;;;;;5090951;28;20023;-74
2021/09/10 08:15:49;;;;;;;3.10;1.50;;;23.60;99.90;;;;;;5091092;28;20105;-74
2021/09/10 08:18:15;;;;;;;2.13;1.35;;;23.60;99.90;;;;;;5090996;28;20430;-74
2021/09/10 08:20:41;;;;;;;2.70;1.67;;;23.60;99.90;;;;;;5091198;28;20024;-74
2021/09/10 08:23:06;;;;;;;3.20;1.70;;;23.60;99.90;;;;;;5091138;28;20085;-74
2021/09/10 08:25:32;;;;;;;1.80;1.48;;;23.60;99.90;;;;;;5091452;28;20020;-74
2021/09/10 08:27:58;;;;;;;3.22;1.70;;;23.60;99.90;;;;;;5091019;28;20049;-74
2021/09/10 08:30:23;;;;;;;2.30;1.55;;;23.60;99.90;;;;;;5090844;28;20016;-74
2021/09/10 08:32:50;;;;;;;3.10;1.45;;;23.60;99.90;;;;;;5090962;28;20039;-74
2021/09/10 08:35:15;;;;;;;2.17;1.42;;;23.60;99.90;;;;;;5090686;28;20036;-74
2021/09/10 08:37:41;;;;;;;1.63;1.20;;;23.60;99.90;;;;;;5090894;28;20013;-74
2021/09/10 08:40:07;;;;;;;3.17;1.88;;;23.60;99.90;;;;;;5091537;28;20023;-74
2021/09/10 08:42:33;;;;;;;1.42;1.10;;;23.60;99.90;;;;;;5094960;28;20024;-74
2021/09/10 08:44:59;;;;;;;2.20;1.50;;;23.60;99.90;;;;;;5094572;28;20020;-74
2021/09/10 08:47:24;;;;;;;2.85;1.70;;;23.60;99.90;;;;;;5094302;28;20519;-74
2021/09/10 08:49:52;;;;;;;2.50;1.60;;;23.60;99.90;;;;;;5094334;28;20464;-74
2021/09/10 08:52:18;;;;;;;3.47;1.60;;;23.60;99.90;;;;;;5094164;28;20531;-74
2021/09/10 08:54:44;;;;;;;1.90;1.55;;;23.70;99.90;;;;;;5094315;28;20118;-74
2021/09/10 08:57:10;;;;;;;2.53;1.60;;;23.70;99.90;;;;;;5094280;28;20052;-74
2021/09/10 08:59:36;;;;;;;2.75;1.45;;;23.70;99.90;;;;;;5094590;28;20526;-74
2021/09/10 09:02:01;;;;;;;2.17;1.30;;;23.70;99.90;;;;;;5094154;28;20028;-74
2021/09/10 09:04:32;;;;;;;2.38;1.60;;;23.70;99.90;;;;;;5093956;28;20028;-74
2021/09/10 09:07:00;;;;;;;1.95;1.48;;;23.70;99.90;;;;;;5094300;28;20115;-74
2021/09/10 09:09:34;;;;;;;3.65;1.40;;;23.70;99.90;;;;;;5093813;28;20024;-74
2021/09/10 09:12:26;;;;;;;1.67;1.25;;;23.70;99.90;;;;;;5094048;28;20035;-74
2021/09/10 09:15:02;;;;;;;1.98;1.40;;;23.70;99.90;;;;;;5093945;28;20118;-74
2021/09/10 09:17:32;;;;;;;2.25;1.70;;;23.70;99.90;;;;;;5093631;28;20475;-74
2021/09/10 09:20:20;;;;;;;4.47;1.90;;;23.70;99.90;;;;;;5093875;28;20040;-74
2021/09/10 09:22:55;;;;;;;2.40;1.50;;;23.80;99.90;;;;;;5094025;28;20020;-74
2021/09/10 09:25:41;;;;;;;2.85;1.50;;;23.70;99.90;;;;;;5093614;28;20020;-74
2021/09/10 09:28:28;;;;;;;2.63;1.70;;;23.70;99.90;;;;;;5093637;28;20103;-75
2021/09/10 09:30:54;;;;;;;2.47;1.70;;;23.70;99.90;;;;;;5075551;28;20360;-74
2021/09/10 09:33:28;;;;;;;3.28;1.90;;;23.80;99.90;;;;;;5093370;28;20031;-74
2021/09/10 09:35:58;;;;;;;2.03;1.67;;;23.80;99.90;;;;;;5093602;28;20036;-74
2021/09/10 09:38:26;;;;;;;3.25;1.80;;;23.80;99.90;;;;;;5093281;28;20027;-74
2021/09/10 09:40:55;;;;;;;8.70;2.13;;;23.80;99.90;;;;;;5093520;28;20035;-74
2021/09/10 09:43:27;;;;;;;3.13;2.00;;;23.80;99.90;;;;;;5093164;28;20039;-74
2021/09/10 09:45:53;;;;;;;2.75;1.83;;;23.80;99.90;;;;;;5093437;28;20028;-74
2021/09/10 09:48:21;;;;;;;2.05;1.65;;;23.80;99.90;;;;;;5093074;28;20043;-74
2021/09/10 09:50:49;;;;;;;2.28;1.73;;;23.80;99.90;;;;;;5093163;28;20510;-74
2021/09/10 09:53:16;;;;;;;2.60;2.20;;;23.80;99.90;;;;;;5092152;28;20031;-74
2021/09/10 09:55:46;;;;;;;2.47;2.03;;;23.80;99.90;;;;;;5093172;28;20027;-74
2021/09/10 09:58:15;;;;;;;2.38;1.77;;;23.80;99.90;;;;;;5092921;28;20021;-74
2021/09/10 10:00:46;;;;;;;3.40;1.98;;;23.80;99.90;;;;;;5093081;28;20384;-74
2021/09/10 10:03:12;;;;;;;2.95;2.40;;;23.80;99.90;;;;;;5092864;28;20012;-75
2021/09/10 10:05:51;;;;;;;3.17;2.30;;;23.90;99.90;;;;;;5093060;28;20082;-74
2021/09/10 10:08:26;;;;;;;2.30;2.08;;;23.90;99.90;;;;;;5092801;28;20024;-74
2021/09/10 10:10:57;;;;;;;3.10;2.38;;;23.90;99.90;;;;;;5092953;28;20042;-74
2021/09/10 10:13:31;;;;;;;3.15;2.85;;;23.90;99.90;;;;;;5092675;28;20024;-74
2021/09/10 10:15:57;;;;;;;;;;;23.90;99.90;;;;;;5093192;28;20043;-74
2021/09/10 10:18:36;;;;;;;3.35;2.38;;;23.90;99.90;;;;;;5092540;28;19998;-74
2021/09/10 10:21:02;;;;;;;4.70;2.90;;;23.90;99.90;;;;;;5092976;28;20024;-74
2021/09/10 10:23:43;;;;;;;3.05;2.85;;;23.90;99.90;;;;;;5092461;28;20386;-74
2021/09/10 10:26:10;;;;;;;3.33;3.00;;;23.90;99.90;;;;;;5092376;28;20058;-75
2021/09/10 10:28:44;;;;;;;3.28;2.97;;;23.90;99.90;;;;;;5092876;28;20472;-75
2021/09/10 10:31:11;;;;;;;4.18;3.15;;;23.90;99.90;;;;;;5092302;28;20028;-74
2021/09/10 10:34:02;;;;;;;3.80;3.00;;;23.90;99.90;;;;;;5092524;28;20020;-74
2021/09/10 10:36:37;;;;;;;3.70;2.92;;;23.90;99.90;;;;;;5092210;28;20028;-74
2021/09/10 10:39:09;;;;;;;3.30;2.50;;;23.90;99.90;;;;;;5092633;28;20472;-73
2021/09/10 10:41:48;;;;;;;3.33;2.50;;;24.00;99.90;;;;;;5092679;28;20494;-76
2021/09/10 10:44:32;;;;;;;3.10;2.80;;;24.00;99.90;;;;;;5073960;28;20028;-75
2021/09/10 10:47:14;;;;;;;3.22;2.92;;;24.00;99.90;;;;;;5092263;28;20103;-73
2021/09/10 10:49:42;;;;;;;3.20;2.90;;;24.00;99.90;;;;;;5092196;28;20089;-75
2021/09/10 10:52:26;;;;;;;3.75;3.15;;;24.00;99.90;;;;;;5091875;28;20024;-75
2021/09/10 10:55:21;;;;;;;3.15;2.85;;;24.00;99.90;;;;;;5092068;28;20494;-75
2021/09/10 10:57:48;;;;;;;3.30;2.70;;;24.00;99.90;;;;;;5092141;28;20024;-75
2021/09/10 11:00:30;;;;;;;2.85;2.45;;;24.00;99.90;;;;;;5091879;28;20039;-73
2021/09/10 11:03:14;;;;;;;3.28;2.97;;;24.10;99.90;;;;;;5092172;28;20028;-73
2021/09/10 11:05:40;;;;;;;;;;;24.10;99.90;;;;;;5092459;28;20028;-73
2021/09/10 11:08:05;;;;;;;3.13;2.63;;;24.00;99.90;;;;;;5092166;28;19918;-73
2021/09/10 11:10:31;;;;;;;3.33;3.00;;;24.10;99.90;;;;;;5091658;28;20404;-74
2021/09/10 11:12:58;;;;;;;3.55;3.20;;;24.10;99.90;;;;;;5091855;28;20032;-75
2021/09/10 11:15:32;;;;;;;3.10;2.80;;;24.10;99.90;;;;;;5091605;28;20046;-72
2021/09/10 11:18:11;;;;;;;2.90;2.60;;;24.10;99.90;;;;;;5091779;28;20089;-74
2021/09/10 11:20:43;;;;;;;3.10;2.80;;;24.10;99.90;;;;;;5091981;28;20105;-75
2021/09/10 11:23:26;;;;;;;3.75;2.80;;;24.10;99.90;;;;;;5091571;28;20091;-75
2021/09/10 11:25:55;;;;;;;3.13;2.75;;;24.10;99.90;;;;;;5091840;28;20031;-75
2021/09/10 11:28:22;;;;;;;3.20;2.90;;;24.10;99.90;;;;;;5091366;28;20030;-73
2021/09/10 11:30:50;;;;;;;3.75;2.90;;;24.10;99.90;;;;;;5091543;28;20031;-73
2021/09/10 11:33:17;;;;;;;3.17;2.88;;;24.10;99.90;;;;;;5091379;28;20111;-74
2021/09/10 11:35:44;;;;;;;3.08;2.78;;;24.10;99.90;;;;;;5091504;28;20032;-74
2021/09/10 11:38:12;;;;;;;3.10;2.80;;;24.10;99.90;;;;;;5091344;28;20482;-73
2021/09/10 11:40:44;;;;;;;3.13;2.83;;;24.20;99.90;;;;;;5091446;28;20472;-74
2021/09/10 11:43:24;;;;;;;2.92;2.72;;;24.20;99.90;;;;;;5091319;28;20543;-73
2021/09/10 11:46:14;;;;;;;2.72;2.50;;;24.20;99.90;;;;;;5091388;28;20073;-73
2021/09/10 11:48:53;;;;;;;3.10;2.80;;;24.20;99.90;;;;;;5090851;28;20040;-73
2021/09/10 11:51:42;;;;;;;2.80;2.47;;;24.20;99.90;;;;;;5091104;28;20066;-74
2021/09/10 11:54:10;;;;;;;2.55;2.35;;;24.20;99.90;;;;;;5090983;28;20031;-74
2021/09/10 11:56:36;;;;;;;2.90;2.60;;;24.20;99.90;;;;;;5073562;28;20078;-73
2021/09/10 11:59:25;;;;;;;3.22;2.80;;;24.20;99.90;;;;;;5091685;28;20028;-74
2021/09/10 12:01:52;;;;;;;3.78;2.88;;;24.20;99.90;;;;;;5091526;28;20024;-73
2021/09/10 12:04:34;;;;;;;2.90;2.60;;;24.20;99.90;;;;;;5091154;28;20016;-73
2021/09/10 12:07:02;;;;;;;2.63;2.42;;;24.20;99.90;;;;;;5091370;28;20016;-73
2021/09/10 12:09:30;;;;;;;2.40;2.20;;;24.20;99.90;;;;;;5091316;28;20018;-73
2021/09/10 12:12:17;;;;;;;2.65;2.45;;;24.20;99.90;;;;;;5091171;28;20472;-74
2021/09/10 12:14:52;;;;;;;3.30;2.58;;;24.20;99.90;;;;;;5091206;28;20032;-73
2021/09/10 12:17:24;;;;;;;3.10;2.22;;;24.20;99.90;;;;;;5094954;28;20103;-73
2021/09/10 12:19:53;;;;;;;3.10;2.45;;;24.20;99.90;;;;;;5095116;28;20016;-73
2021/09/10 12:22:44;;;;;;;2.60;2.40;;;24.20;99.90;;;;;;5094783;28;20024;-73
2021/09/10 12:25:25;;;;;;;4.10;2.50;;;24.20;99.90;;;;;;5090852;28;20081;-73
2021/09/10 12:28:17;;;;;;;2.80;2.60;;;24.30;99.90;;;;;;5095024;28;20034;-73
2021/09/10 12:30:45;;;;;;;3.97;2.58;;;24.30;99.90;;;;;;5094924;28;20020;-73
2021/09/10 12:33:17;;;;;;;3.70;2.60;;;24.20;99.90;;;;;;5094423;28;20480;-73
2021/09/10 12:35:43;;;;;;;3.67;2.58;;;24.30;99.90;;;;;;5094867;28;20046;-73
2021/09/10 12:38:11;;;;;;;2.95;2.33;;;24.30;99.90;;;;;;5094574;28;20020;-73
2021/09/10 12:40:40;;;;;;;2.80;2.13;;;24.30;99.90;;;;;;5076617;28;20119;-73
2021/09/10 12:43:08;;;;;;;3.42;2.42;;;24.30;99.90;;;;;;5094911;28;20031;-73
2021/09/10 12:45:34;;;;;;;2.90;2.58;;;24.30;99.90;;;;;;5094937;28;20028;-73
2021/09/10 12:48:00;;;;;;;3.92;2.95;;;24.30;99.90;;;;;;5094599;28;20036;-73
2021/09/10 12:50:26;;;;;;;2.83;2.22;;;24.30;99.90;;;;;;5094162;28;20119;-73
2021/09/10 12:52:52;;;;;;;2.75;2.40;;;24.30;99.90;;;;;;5094431;28;20413;-73